createdAt,value
2023-02-22T00:00:37.882Z,20.12
2023-02-22T00:03:04.354Z,20.10
2023-02-22T00:05:30.727Z,20.07
2023-02-22T00:07:57.290Z,20.05
2023-02-22T00:10:23.658Z,20.07
2023-02-22T00:12:50.067Z,20.05
2023-02-22T00:15:16.394Z,20.03
2023-02-22T00:17:42.753Z,20.00
2023-02-22T00:20:09.260Z,20.01
2023-02-22T00:22:35.645Z,20.00
2023-02-22T00:25:02.047Z,19.99
2023-02-22T00:27:28.409Z,19.98
2023-02-22T00:29:55.025Z,19.96
2023-02-22T00:32:21.501Z,19.96
2023-02-22T00:34:47.923Z,19.94
2023-02-22T00:37:14.438Z,19.93
2023-02-22T00:39:40.736Z,19.92
2023-02-22T00:42:07.022Z,19.92
2023-02-22T00:44:33.540Z,19.89
2023-02-22T00:47:00.039Z,19.87
2023-02-22T00:49:26.809Z,19.86
2023-02-22T00:51:53.071Z,19.87
2023-02-22T00:54:19.465Z,19.89
2023-02-22T00:56:45.764Z,19.85
2023-02-22T00:59:12.190Z,19.82
2023-02-22T01:01:39.050Z,19.82
2023-02-22T01:04:05.549Z,19.78
2023-02-22T01:06:32.070Z,19.76
2023-02-22T01:08:58.443Z,19.80
2023-02-22T01:11:24.993Z,19.77
2023-02-22T01:13:51.385Z,19.77
2023-02-22T01:16:17.756Z,19.73
2023-02-22T01:18:44.102Z,19.71
2023-02-22T01:21:10.603Z,19.71
2023-02-22T01:23:36.977Z,19.68
2023-02-22T01:26:03.343Z,19.67
2023-02-22T01:28:30.018Z,19.66
2023-02-22T01:30:56.992Z,19.66
2023-02-22T01:33:23.363Z,19.64
2023-02-22T01:35:50.903Z,19.63
2023-02-22T01:38:17.630Z,19.62
2023-02-22T01:40:43.975Z,19.60
2023-02-22T01:43:10.552Z,19.57
2023-02-22T01:45:36.932Z,19.56
2023-02-22T01:48:03.396Z,19.61
2023-02-22T01:50:31.139Z,19.58
2023-02-22T01:53:01.612Z,19.55
2023-02-22T01:55:29.900Z,19.53
2023-02-22T01:57:57.709Z,19.54
2023-02-22T02:00:24.043Z,19.51
2023-02-22T02:02:50.527Z,19.54
2023-02-22T02:05:21.275Z,19.52
2023-02-22T02:07:48.511Z,19.47
2023-02-22T02:10:16.050Z,19.42
2023-02-22T02:12:42.587Z,19.44
2023-02-22T02:15:09.042Z,19.47
2023-02-22T02:17:35.774Z,19.44
2023-02-22T02:20:02.428Z,19.41
2023-02-22T02:22:28.783Z,19.41
2023-02-22T02:24:55.158Z,19.36
2023-02-22T02:27:21.577Z,19.35
2023-02-22T02:29:48.134Z,19.37
2023-02-22T02:32:14.567Z,19.38
2023-02-22T02:34:41.140Z,19.30
2023-02-22T02:37:07.964Z,19.32
2023-02-22T02:39:34.819Z,19.26
2023-02-22T02:42:01.121Z,19.32
2023-02-22T02:44:27.731Z,19.31
2023-02-22T02:46:54.121Z,19.25
2023-02-22T02:49:20.461Z,19.22
2023-02-22T02:51:47.266Z,19.21
2023-02-22T02:54:13.974Z,19.18
2023-02-22T02:56:40.277Z,19.19
2023-02-22T02:59:07.526Z,19.14
2023-02-22T03:01:34.003Z,19.12
2023-02-22T03:04:00.871Z,19.04
2023-02-22T03:06:27.134Z,19.13
2023-02-22T03:08:53.534Z,19.16
2023-02-22T03:11:19.948Z,19.07
2023-02-22T03:13:46.438Z,19.09
2023-02-22T03:16:12.958Z,19.11
2023-02-22T03:18:39.379Z,19.06
2023-02-22T03:21:05.790Z,19.00
2023-02-22T03:23:32.127Z,19.01
2023-02-22T03:25:58.865Z,18.85
2023-02-22T03:28:25.270Z,18.88
2023-02-22T03:30:51.659Z,18.87
2023-02-22T03:33:18.121Z,18.95
2023-02-22T03:35:45.051Z,18.92
2023-02-22T03:38:11.899Z,18.91
2023-02-22T03:40:38.431Z,18.80
2023-02-22T03:43:05.220Z,18.93
2023-02-22T03:45:31.561Z,18.95
2023-02-22T03:47:57.919Z,18.81
2023-02-22T03:50:24.585Z,18.92
2023-02-22T03:52:51.100Z,18.85
2023-02-22T03:55:17.710Z,18.71
2023-02-22T03:57:44.934Z,18.69
2023-02-22T04:00:12.100Z,18.83
2023-02-22T04:02:38.822Z,18.73
2023-02-22T04:05:05.372Z,18.85
2023-02-22T04:07:32.079Z,18.80
2023-02-22T04:09:58.442Z,18.79
2023-02-22T04:12:25.092Z,18.81
2023-02-22T04:14:51.436Z,18.78
2023-02-22T04:17:17.886Z,18.73
2023-02-22T04:19:44.725Z,18.69
2023-02-22T04:22:11.025Z,18.57
2023-02-22T04:24:37.657Z,18.73
2023-02-22T04:27:03.980Z,18.72
2023-02-22T04:29:30.375Z,18.61
2023-02-22T04:31:57.088Z,18.70
2023-02-22T04:34:23.657Z,18.69
2023-02-22T04:36:50.155Z,18.65
2023-02-22T04:39:16.667Z,18.61
2023-02-22T04:41:43.070Z,18.61
2023-02-22T04:44:09.658Z,18.64
2023-02-22T04:46:36.283Z,18.63
2023-02-22T04:49:02.749Z,18.57
2023-02-22T04:51:29.692Z,18.58
2023-02-22T04:53:56.022Z,18.56
2023-02-22T04:56:22.948Z,18.53
2023-02-22T04:58:49.382Z,18.54
2023-02-22T05:01:16.249Z,18.52
2023-02-22T05:03:42.985Z,18.49
2023-02-22T05:06:09.386Z,18.52
2023-02-22T05:08:35.867Z,18.48
2023-02-22T05:11:02.211Z,18.47
2023-02-22T05:13:28.604Z,18.47
2023-02-22T05:15:55.403Z,18.43
2023-02-22T05:18:22.038Z,18.29
2023-02-22T05:20:48.610Z,18.43
2023-02-22T05:23:14.943Z,18.38
2023-02-22T05:25:41.345Z,18.44
2023-02-22T05:28:08.108Z,18.41
2023-02-22T05:30:34.567Z,18.40
2023-02-22T05:33:01.021Z,18.39
2023-02-22T05:35:27.366Z,18.36
2023-02-22T05:37:54.028Z,18.36
2023-02-22T05:40:20.412Z,18.32
2023-02-22T05:42:48.886Z,18.34
2023-02-22T05:45:15.294Z,18.31
2023-02-22T05:47:41.634Z,18.30
2023-02-22T05:50:08.005Z,18.29
2023-02-22T05:52:34.438Z,18.27
2023-02-22T05:55:00.897Z,18.26
2023-02-22T05:57:27.806Z,18.20
2023-02-22T05:59:54.274Z,18.25
2023-02-22T06:02:20.607Z,18.22
2023-02-22T06:04:47.064Z,18.25
2023-02-22T06:07:13.440Z,18.23
2023-02-22T06:09:39.806Z,18.22
2023-02-22T06:12:06.312Z,18.17
2023-02-22T06:14:32.802Z,18.18
2023-02-22T06:16:59.124Z,18.16
2023-02-22T06:19:25.747Z,18.15
2023-02-22T06:21:52.260Z,18.13
2023-02-22T06:24:18.951Z,18.15
2023-02-22T06:26:45.553Z,18.13
2023-02-22T06:29:11.897Z,18.12
2023-02-22T06:31:38.543Z,18.14
2023-02-22T06:34:04.943Z,18.12
2023-02-22T06:36:31.446Z,18.09
2023-02-22T06:38:58.045Z,18.09
2023-02-22T06:41:24.432Z,18.08
2023-02-22T06:43:50.803Z,18.09
2023-02-22T06:46:17.177Z,17.87
2023-02-22T06:48:43.535Z,17.66
2023-02-22T06:51:10.243Z,17.59
2023-02-22T06:53:37.061Z,17.65
2023-02-22T06:56:03.435Z,17.70
2023-02-22T06:58:29.885Z,17.76
2023-02-22T07:00:56.270Z,17.77
2023-02-22T07:03:22.848Z,17.81
2023-02-22T07:05:49.546Z,17.80
2023-02-22T07:08:16.307Z,17.81
2023-02-22T07:10:42.889Z,17.82
2023-02-22T07:13:09.232Z,17.73
2023-02-22T07:15:35.868Z,17.72
2023-02-22T07:18:02.998Z,17.71
2023-02-22T07:20:29.561Z,17.70
2023-02-22T07:22:56.254Z,17.71
2023-02-22T07:25:22.659Z,17.70
2023-02-22T07:27:49.074Z,17.71
2023-02-22T07:30:15.828Z,17.69
2023-02-22T07:32:42.907Z,17.91
2023-02-22T07:35:09.682Z,17.81
2023-02-22T07:37:36.481Z,17.86
2023-02-22T07:40:03.196Z,17.83
2023-02-22T07:42:29.965Z,17.83
2023-02-22T07:44:56.334Z,17.69
2023-02-22T07:47:22.809Z,17.64
2023-02-22T07:49:49.516Z,17.76
2023-02-22T07:52:16.720Z,17.81
2023-02-22T07:54:43.088Z,17.81
2023-02-22T07:57:09.712Z,17.86
2023-02-22T07:59:36.054Z,17.72
2023-02-22T08:02:02.432Z,17.80
2023-02-22T08:04:28.872Z,17.79
2023-02-22T08:06:55.235Z,17.88
2023-02-22T08:09:21.995Z,17.73
2023-02-22T08:11:49.065Z,17.86
2023-02-22T08:14:15.534Z,17.74
2023-02-22T08:16:41.998Z,17.88
2023-02-22T08:19:09.025Z,17.71
2023-02-22T08:21:35.357Z,17.76
2023-02-22T08:24:01.760Z,17.80
2023-02-22T08:26:28.419Z,17.85
2023-02-22T08:28:55.135Z,17.82
2023-02-22T08:31:21.809Z,17.81
2023-02-22T08:33:49.026Z,17.77
2023-02-22T08:36:15.401Z,17.72
2023-02-22T08:38:41.775Z,17.61
2023-02-22T08:41:08.372Z,17.77
2023-02-22T08:43:35.371Z,17.75
2023-02-22T08:46:02.043Z,17.74
2023-02-22T08:48:28.483Z,17.74
2023-02-22T08:50:55.083Z,17.69
2023-02-22T08:53:21.774Z,17.70
2023-02-22T08:55:48.770Z,17.74
2023-02-22T08:58:15.178Z,17.73
2023-02-22T09:00:41.513Z,17.71
2023-02-22T09:03:08.093Z,17.71
2023-02-22T09:05:34.477Z,17.69
2023-02-22T09:08:00.835Z,17.67
2023-02-22T09:10:27.290Z,17.67
2023-02-22T09:12:54.351Z,17.67
2023-02-22T09:15:20.843Z,17.66
2023-02-22T09:17:47.165Z,17.65
2023-02-22T09:20:13.495Z,17.67
2023-02-22T09:22:39.836Z,17.65
2023-02-22T09:25:16.409Z,17.66
2023-02-22T09:27:43.539Z,17.64
2023-02-22T09:30:10.117Z,17.63
2023-02-22T09:32:37.421Z,17.62
2023-02-22T09:35:04.208Z,17.61
2023-02-22T09:37:30.864Z,17.60
2023-02-22T09:39:57.615Z,17.61
2023-02-22T09:42:24.055Z,17.60
2023-02-22T09:44:50.524Z,17.61
2023-02-22T09:47:17.605Z,17.60
2023-02-22T09:49:44.051Z,17.58
2023-02-22T09:52:10.383Z,17.57
2023-02-22T09:54:37.289Z,17.54
2023-02-22T09:57:03.954Z,17.55
2023-02-22T09:59:30.365Z,17.56
2023-02-22T10:01:56.699Z,17.56
2023-02-22T10:04:23.182Z,17.56
2023-02-22T10:06:49.622Z,17.54
2023-02-22T10:09:16.011Z,17.53
2023-02-22T10:11:42.399Z,17.53
2023-02-22T10:14:08.680Z,17.53
2023-02-22T10:16:35.630Z,17.53
2023-02-22T10:19:02.061Z,17.52
2023-02-22T10:21:28.769Z,17.51
2023-02-22T10:23:55.137Z,17.49
2023-02-22T10:26:21.506Z,17.49
2023-02-22T10:28:48.102Z,17.51
2023-02-22T10:31:14.945Z,17.51
2023-02-22T10:33:41.362Z,17.47
2023-02-22T10:36:07.819Z,17.47
2023-02-22T10:38:34.145Z,17.49
2023-02-22T10:41:00.535Z,17.45
2023-02-22T10:43:27.144Z,17.49
2023-02-22T10:45:53.516Z,17.47
2023-02-22T10:48:20.021Z,17.44
2023-02-22T10:50:46.631Z,17.46
2023-02-22T10:53:13.238Z,17.44
2023-02-22T10:55:39.684Z,17.43
2023-02-22T10:58:06.614Z,17.44
2023-02-22T11:00:33.029Z,17.42
2023-02-22T11:02:59.356Z,17.44
2023-02-22T11:05:25.709Z,17.43
2023-02-22T11:07:52.049Z,17.42
2023-02-22T11:10:18.408Z,17.41
2023-02-22T11:12:45.012Z,17.41
2023-02-22T11:15:12.110Z,17.39
2023-02-22T11:17:38.488Z,17.40
2023-02-22T11:20:04.987Z,17.39
2023-02-22T11:22:31.584Z,17.38
2023-02-22T11:24:57.953Z,17.38
2023-02-22T11:27:24.331Z,17.37
2023-02-22T11:29:50.631Z,17.38
2023-02-22T11:32:17.347Z,17.36
2023-02-22T11:34:44.258Z,17.36
2023-02-22T11:37:10.952Z,17.36
2023-02-22T11:39:37.296Z,17.36
2023-02-22T11:42:03.869Z,17.36
2023-02-22T11:44:30.355Z,17.35
2023-02-22T11:46:56.889Z,17.34
2023-02-22T11:49:23.678Z,17.33
2023-02-22T11:51:50.335Z,17.35
2023-02-22T11:54:16.681Z,17.33
2023-02-22T11:56:43.560Z,17.33
2023-02-22T11:59:10.051Z,17.33
2023-02-22T12:01:36.419Z,17.33
2023-02-22T12:04:02.920Z,17.32
2023-02-22T12:06:29.396Z,17.30
2023-02-22T12:08:55.756Z,17.31
2023-02-22T12:11:22.199Z,17.29
2023-02-22T12:13:48.526Z,17.29
2023-02-22T12:16:15.443Z,17.30
2023-02-22T12:18:42.133Z,17.29
2023-02-22T12:21:08.622Z,17.28
2023-02-22T12:23:35.043Z,17.28
2023-02-22T12:26:01.510Z,17.28
2023-02-22T12:28:28.044Z,17.27
2023-02-22T12:30:54.562Z,17.25
2023-02-22T12:33:20.949Z,17.27
2023-02-22T12:35:47.240Z,17.23
2023-02-22T12:38:13.618Z,17.22
2023-02-22T12:40:39.968Z,17.19
2023-02-22T12:43:06.351Z,17.18
2023-02-22T12:45:32.794Z,17.19
2023-02-22T12:47:59.417Z,17.18
2023-02-22T12:50:25.739Z,17.20
2023-02-22T12:52:52.397Z,17.17
2023-02-22T12:55:18.825Z,17.17
2023-02-22T12:57:45.164Z,17.15
2023-02-22T13:00:11.517Z,17.15
2023-02-22T13:02:37.939Z,17.14
2023-02-22T13:05:04.290Z,17.10
2023-02-22T13:07:30.615Z,17.08
2023-02-22T13:09:57.335Z,17.13
2023-02-22T13:12:23.921Z,17.14
2023-02-22T13:14:50.502Z,17.14
2023-02-22T13:17:17.035Z,17.15
2023-02-22T13:19:43.441Z,17.13
2023-02-22T13:22:09.920Z,17.17
2023-02-22T13:24:36.231Z,17.18
2023-02-22T13:27:02.693Z,17.15
2023-02-22T13:29:29.406Z,17.15
2023-02-22T13:31:55.992Z,17.14
2023-02-22T13:34:22.758Z,17.14
2023-02-22T13:36:49.610Z,17.14
2023-02-22T13:39:16.057Z,17.14
2023-02-22T13:41:42.461Z,17.15
2023-02-22T13:44:09.436Z,17.14
2023-02-22T13:46:35.982Z,17.15
2023-02-22T13:49:02.316Z,17.14
2023-02-22T13:51:29.046Z,17.16
2023-02-22T13:53:55.394Z,17.14
2023-02-22T13:56:22.106Z,17.15
2023-02-22T13:58:48.649Z,17.15
2023-02-22T14:01:15.086Z,17.13
2023-02-22T14:03:41.524Z,17.12
2023-02-22T14:06:07.903Z,17.06
2023-02-22T14:08:34.289Z,17.11
2023-02-22T14:11:01.025Z,17.10
2023-02-22T14:13:27.532Z,17.09
2023-02-22T14:15:53.933Z,17.09
2023-02-22T14:18:20.306Z,17.09
2023-02-22T14:20:47.847Z,17.11
2023-02-22T14:23:14.885Z,17.11
2023-02-22T14:25:41.453Z,17.09
2023-02-22T14:28:08.279Z,17.08
2023-02-22T14:30:34.598Z,17.11
2023-02-22T14:33:01.533Z,17.06
2023-02-22T14:35:33.319Z,17.13
2023-02-22T14:38:07.688Z,17.14
2023-02-22T14:40:34.073Z,17.11
2023-02-22T14:43:00.717Z,17.09
2023-02-22T14:45:29.848Z,17.02
2023-02-22T14:47:56.964Z,17.06
2023-02-22T14:50:23.263Z,17.12
2023-02-22T14:52:49.622Z,17.09
2023-02-22T14:55:16.422Z,17.10
2023-02-22T14:57:42.870Z,17.07
2023-02-22T15:00:09.182Z,17.12
2023-02-22T15:02:35.951Z,17.08
2023-02-22T15:05:02.460Z,17.07
2023-02-22T15:07:28.805Z,17.08
2023-02-22T15:09:55.789Z,17.06
2023-02-22T15:12:22.243Z,17.04
2023-02-22T15:14:48.869Z,17.03
2023-02-22T15:17:15.299Z,17.07
2023-02-22T15:19:41.862Z,17.04
2023-02-22T15:22:08.263Z,17.02
2023-02-22T15:24:34.978Z,17.02
2023-02-22T15:27:03.495Z,17.02
2023-02-22T15:29:31.428Z,16.93
2023-02-22T15:31:57.808Z,16.97
2023-02-22T15:34:24.160Z,16.93
2023-02-22T15:36:50.453Z,16.97
2023-02-22T15:39:16.826Z,17.01
2023-02-22T15:41:43.109Z,17.03
2023-02-22T15:44:22.717Z,17.10
2023-02-22T15:46:50.161Z,17.08
2023-02-22T15:49:16.530Z,17.17
2023-02-22T15:51:42.942Z,17.20
2023-02-22T15:54:13.258Z,17.16
2023-02-22T15:56:47.996Z,17.17
2023-02-22T15:59:14.933Z,17.12
2023-02-22T16:01:42.708Z,17.15
2023-02-22T16:04:09.620Z,17.12
2023-02-22T16:06:36.110Z,17.16
2023-02-22T16:09:02.482Z,17.18
2023-02-22T16:11:29.346Z,17.15
2023-02-22T16:13:55.733Z,17.09
2023-02-22T16:16:22.376Z,17.16
2023-02-22T16:18:48.714Z,17.17
2023-02-22T16:21:15.351Z,17.16
2023-02-22T16:23:42.217Z,17.11
2023-02-22T16:26:09.394Z,17.08
2023-02-22T16:28:35.703Z,17.14
2023-02-22T16:31:02.358Z,17.08
2023-02-22T16:33:28.783Z,17.11
2023-02-22T16:35:55.555Z,17.10
2023-02-22T16:38:21.931Z,17.13
2023-02-22T16:40:48.311Z,16.96
2023-02-22T16:43:14.853Z,17.08
2023-02-22T16:45:42.553Z,17.01
2023-02-22T16:48:09.022Z,16.99
2023-02-22T16:50:35.410Z,17.03
2023-02-22T16:53:01.740Z,17.07
2023-02-22T16:55:28.254Z,17.09
2023-02-22T16:57:54.642Z,17.06
2023-02-22T17:00:21.155Z,17.00
2023-02-22T17:02:48.034Z,16.94
2023-02-22T17:05:14.570Z,16.97
2023-02-22T17:07:40.900Z,16.98
2023-02-22T17:10:07.232Z,16.95
2023-02-22T17:12:33.733Z,16.92
2023-02-22T17:15:00.146Z,16.90
2023-02-22T17:17:27.087Z,16.91
2023-02-22T17:19:53.381Z,16.88
2023-02-22T17:22:19.721Z,16.87
2023-02-22T17:24:46.067Z,16.83
2023-02-22T17:27:12.457Z,16.83
2023-02-22T17:29:38.889Z,16.81
2023-02-22T17:32:05.374Z,16.81
2023-02-22T17:34:31.774Z,16.80
2023-02-22T17:36:58.309Z,16.79
2023-02-22T17:39:24.719Z,16.77
2023-02-22T17:41:53.380Z,16.76
2023-02-22T17:44:20.943Z,16.75
2023-02-22T17:46:47.462Z,16.76
2023-02-22T17:49:13.882Z,16.74
2023-02-22T17:51:40.336Z,16.73
2023-02-22T17:54:07.448Z,16.73
2023-02-22T17:56:34.598Z,16.72
2023-02-22T17:59:01.047Z,16.72
2023-02-22T18:01:27.390Z,16.70
2023-02-22T18:03:53.959Z,16.70
2023-02-22T18:06:23.315Z,16.70
2023-02-22T18:08:51.238Z,16.68
2023-02-22T18:11:17.923Z,16.66
2023-02-22T18:13:44.457Z,16.68
2023-02-22T18:16:11.149Z,16.68
2023-02-22T18:18:37.563Z,16.67
2023-02-22T18:21:03.896Z,16.67
2023-02-22T18:23:30.223Z,16.66
2023-02-22T18:26:09.690Z,16.66
2023-02-22T18:28:37.844Z,16.65
2023-02-22T18:31:04.390Z,16.66
2023-02-22T18:33:31.950Z,16.65
2023-02-22T18:35:58.485Z,16.65
2023-02-22T18:38:24.857Z,16.65
2023-02-22T18:40:51.260Z,16.66
2023-02-22T18:43:17.890Z,16.65
2023-02-22T18:45:44.227Z,16.66
2023-02-22T18:48:10.585Z,16.65
2023-02-22T18:50:36.925Z,16.64
2023-02-22T18:53:03.612Z,16.63
2023-02-22T18:55:30.087Z,16.64
2023-02-22T18:57:56.524Z,16.63
2023-02-22T19:00:23.464Z,16.62
2023-02-22T19:02:49.787Z,16.62
2023-02-22T19:05:16.479Z,16.62
2023-02-22T19:07:42.773Z,16.64
2023-02-22T19:10:09.178Z,16.63
2023-02-22T19:12:35.936Z,16.64
2023-02-22T19:15:02.549Z,16.65
2023-02-22T19:17:28.982Z,16.63
2023-02-22T19:19:55.300Z,16.58
2023-02-22T19:22:21.742Z,16.62
2023-02-22T19:24:48.311Z,16.59
2023-02-22T19:27:14.774Z,16.58
2023-02-22T19:29:41.139Z,16.61
2023-02-22T19:32:07.534Z,16.58
2023-02-22T19:34:34.048Z,16.57
2023-02-22T19:37:00.805Z,16.58
2023-02-22T19:39:27.303Z,16.55
2023-02-22T19:41:54.208Z,16.57
2023-02-22T19:44:20.715Z,16.57
2023-02-22T19:46:47.741Z,16.52
2023-02-22T19:49:14.090Z,16.54
2023-02-22T19:51:40.457Z,16.55
2023-02-22T19:54:07.348Z,16.55
2023-02-22T19:56:33.709Z,16.51
2023-02-22T19:59:00.168Z,16.52
2023-02-22T20:01:27.093Z,16.54
2023-02-22T20:03:53.522Z,16.51
2023-02-22T20:06:19.937Z,16.52
2023-02-22T20:08:46.314Z,16.52
2023-02-22T20:11:12.707Z,16.49
2023-02-22T20:13:39.254Z,16.48
2023-02-22T20:16:05.646Z,16.47
2023-02-22T20:18:31.977Z,16.46
2023-02-22T20:20:58.613Z,16.47
2023-02-22T20:23:25.000Z,16.46
2023-02-22T20:25:51.360Z,16.46
2023-02-22T20:28:18.192Z,16.46
2023-02-22T20:30:44.615Z,16.46
2023-02-22T20:33:11.166Z,16.44
2023-02-22T20:35:38.013Z,16.46
2023-02-22T20:38:04.770Z,16.45
2023-02-22T20:40:31.406Z,16.42
2023-02-22T20:42:57.836Z,16.44
2023-02-22T20:45:24.322Z,16.40
2023-02-22T20:47:51.107Z,16.43
2023-02-22T20:50:17.453Z,16.41
2023-02-22T20:52:44.238Z,16.39
2023-02-22T20:55:11.796Z,16.39
2023-02-22T20:57:38.462Z,16.39
2023-02-22T21:00:04.977Z,16.39
2023-02-22T21:02:31.232Z,16.39
2023-02-22T21:04:58.146Z,16.38
2023-02-22T21:07:24.715Z,16.38
2023-02-22T21:09:51.110Z,16.38
2023-02-22T21:12:17.400Z,16.36
2023-02-22T21:14:43.850Z,16.37
2023-02-22T21:17:11.120Z,16.35
2023-02-22T21:19:37.602Z,16.34
2023-02-22T21:22:04.074Z,16.34
2023-02-22T21:24:30.654Z,16.35
2023-02-22T21:26:57.139Z,16.35
2023-02-22T21:29:23.535Z,16.32
2023-02-22T21:31:50.046Z,16.31
2023-02-22T21:34:16.507Z,16.31
2023-02-22T21:36:43.422Z,16.32
2023-02-22T21:39:09.771Z,16.31
2023-02-22T21:41:36.098Z,16.32
2023-02-22T21:44:02.841Z,16.30
2023-02-22T21:46:29.662Z,16.28
2023-02-22T21:48:56.105Z,16.29
2023-02-22T21:51:22.503Z,16.28
2023-02-22T21:53:48.880Z,16.30
2023-02-22T21:56:15.479Z,16.26
2023-02-22T21:58:42.001Z,16.28
2023-02-22T22:01:08.453Z,16.27
2023-02-22T22:03:34.816Z,16.25
2023-02-22T22:06:01.233Z,16.26
2023-02-22T22:08:27.578Z,16.25
2023-02-22T22:10:53.902Z,16.24
2023-02-22T22:13:20.197Z,16.25
2023-02-22T22:15:46.711Z,16.25
2023-02-22T22:18:13.034Z,16.21
2023-02-22T22:20:40.266Z,16.23
2023-02-22T22:23:06.816Z,16.22
2023-02-22T22:25:33.157Z,16.22
2023-02-22T22:27:59.756Z,16.20
2023-02-22T22:30:26.362Z,16.19
2023-02-22T22:32:52.725Z,16.20
2023-02-22T22:35:19.360Z,16.19
2023-02-22T22:37:45.780Z,16.19
2023-02-22T22:40:12.405Z,16.19
2023-02-22T22:42:39.142Z,16.19
2023-02-22T22:45:05.563Z,16.18
2023-02-22T22:47:31.951Z,16.18
2023-02-22T22:49:58.257Z,16.18
2023-02-22T22:52:25.070Z,16.16
2023-02-22T22:54:51.371Z,16.17
2023-02-22T22:57:18.149Z,16.15
2023-02-22T22:59:44.522Z,16.16
2023-02-22T23:02:10.859Z,16.16
2023-02-22T23:04:37.449Z,16.14
2023-02-22T23:07:03.890Z,16.14
2023-02-22T23:09:30.238Z,16.14
2023-02-22T23:11:56.676Z,16.13
2023-02-22T23:14:23.565Z,16.15
2023-02-22T23:16:50.386Z,16.14
2023-02-22T23:19:16.940Z,16.13
2023-02-22T23:21:43.257Z,16.12
2023-02-22T23:24:09.586Z,16.10
2023-02-22T23:26:36.232Z,16.10
2023-02-22T23:29:02.533Z,16.10
2023-02-22T23:31:28.858Z,16.10
2023-02-22T23:33:55.414Z,16.09
2023-02-22T23:36:21.812Z,16.10
2023-02-22T23:38:48.178Z,16.09
2023-02-22T23:41:14.939Z,16.07
2023-02-22T23:43:41.254Z,16.09
2023-02-22T23:46:07.836Z,16.07
2023-02-22T23:48:34.207Z,16.06
2023-02-22T23:51:00.547Z,16.07
2023-02-22T23:53:27.371Z,16.07
2023-02-22T23:55:53.926Z,16.06
2023-02-22T23:58:20.395Z,16.05
